Terminal Aerodrome Forecast
Issued by NWS

Home | Current Version | Previous Version | Text Only | Print | Product List | Glossary Off
Versions: 1 2 3 4 5 6 7 8 9 10 11 12 13 14 15 16 17 18 19 20 21 22 23

483
FTUS43 KGRB 211621 AAA
TAFMTW
TAF AMD
KMTW 211621Z 2116/2212 09005KT 1/4SM -RA OVC002
      TEMPO 2116/2118 3/4SM -DZ BR OVC003
     FM212200 14005KT 1/2SM -DZ FG OVC003
     FM220100 VRB03KT 1/2SM FG OVC002=

USA.gov is the U.S. government's official web portal to all federal, state and local government web resources and services.